createdAt,value
2023-05-12T00:01:11.969Z,63.40
2023-05-12T00:03:40.082Z,63.40
2023-05-12T00:06:07.450Z,63.70
2023-05-12T00:08:34.314Z,63.90
2023-05-12T00:11:01.477Z,63.80
2023-05-12T00:13:29.067Z,63.90
2023-05-12T00:15:58.854Z,63.90
2023-05-12T00:18:26.414Z,64.30
2023-05-12T00:20:54.663Z,65.10
2023-05-12T00:23:22.769Z,64.50
2023-05-12T00:25:50.155Z,64.60
2023-05-12T00:28:18.547Z,64.90
2023-05-12T00:30:45.391Z,65.00
2023-05-12T00:33:12.176Z,65.00
2023-05-12T00:35:38.903Z,64.60
2023-05-12T00:38:05.645Z,64.60
2023-05-12T00:40:32.337Z,64.70
2023-05-12T00:42:59.118Z,64.80
2023-05-12T00:45:26.520Z,64.90
2023-05-12T00:47:53.645Z,64.90
2023-05-12T00:50:21.672Z,64.80
2023-05-12T00:52:49.154Z,64.70
2023-05-12T00:55:16.342Z,64.80
2023-05-12T00:57:43.646Z,64.80
2023-05-12T01:00:10.836Z,64.70
2023-05-12T01:02:38.014Z,64.60
2023-05-12T01:05:05.671Z,64.80
2023-05-12T01:07:33.679Z,64.70
2023-05-12T01:10:00.609Z,64.90
2023-05-12T01:12:28.061Z,64.90
2023-05-12T01:14:57.056Z,64.80
2023-05-12T01:17:36.113Z,64.80
2023-05-12T01:20:06.063Z,64.70
2023-05-12T01:22:33.771Z,64.50
2023-05-12T01:25:12.538Z,64.40
2023-05-12T01:27:41.234Z,64.50
2023-05-12T01:30:09.536Z,64.60
2023-05-12T01:32:38.320Z,65.00
2023-05-12T01:35:05.451Z,64.90
2023-05-12T01:37:32.072Z,65.20
2023-05-12T01:39:58.720Z,65.20
2023-05-12T01:42:25.681Z,65.40
2023-05-12T01:44:52.365Z,65.50
2023-05-12T01:47:19.177Z,65.80
2023-05-12T01:49:45.873Z,65.80
2023-05-12T01:52:12.863Z,65.90
2023-05-12T01:54:39.698Z,66.10
2023-05-12T01:57:06.344Z,66.10
2023-05-12T01:59:33.179Z,66.20
2023-05-12T02:01:59.884Z,66.20
2023-05-12T02:04:26.657Z,66.30
2023-05-12T02:06:53.330Z,66.30
2023-05-12T02:09:21.261Z,66.30
2023-05-12T02:11:48.618Z,66.20
2023-05-12T02:14:15.391Z,66.10
2023-05-12T02:16:42.121Z,66.20
2023-05-12T02:19:08.868Z,66.90
2023-05-12T02:21:35.839Z,66.50
2023-05-12T02:24:02.505Z,66.70
2023-05-12T02:26:29.150Z,66.60
2023-05-12T02:28:55.902Z,66.50
2023-05-12T02:31:22.576Z,66.50
2023-05-12T02:33:50.772Z,66.50
2023-05-12T02:36:17.431Z,66.60
2023-05-12T02:38:44.060Z,66.60
2023-05-12T02:41:10.784Z,66.70
2023-05-12T02:43:37.530Z,66.70
2023-05-12T02:46:04.287Z,66.60
2023-05-12T02:48:30.965Z,66.60
2023-05-12T02:50:57.629Z,66.60
2023-05-12T02:53:24.442Z,66.50
2023-05-12T02:55:51.228Z,66.30
2023-05-12T02:58:18.004Z,66.50
2023-05-12T03:00:44.723Z,66.50
2023-05-12T03:03:11.569Z,66.50
2023-05-12T03:05:38.425Z,66.60
2023-05-12T03:08:05.325Z,66.50
2023-05-12T03:10:32.070Z,66.50
2023-05-12T03:12:58.823Z,66.30
2023-05-12T03:15:25.562Z,66.20
2023-05-12T03:17:52.369Z,66.20
2023-05-12T03:20:19.317Z,66.20
2023-05-12T03:22:46.310Z,66.00
2023-05-12T03:25:12.968Z,65.90
2023-05-12T03:27:39.701Z,65.80
2023-05-12T03:30:06.917Z,65.80
2023-05-12T03:32:33.788Z,65.80
2023-05-12T03:35:00.529Z,65.60
2023-05-12T03:37:27.270Z,65.50
2023-05-12T03:39:56.082Z,65.50
2023-05-12T03:42:24.062Z,65.60
2023-05-12T03:44:53.656Z,65.70
2023-05-12T03:47:20.389Z,65.90
2023-05-12T03:49:47.168Z,65.80
2023-05-12T03:52:14.093Z,65.70
2023-05-12T03:54:40.999Z,65.90
2023-05-12T03:57:08.203Z,65.90
2023-05-12T03:59:34.943Z,66.00
2023-05-12T04:02:01.849Z,66.00
2023-05-12T04:04:28.672Z,65.80
2023-05-12T04:06:55.355Z,65.90
2023-05-12T04:09:22.069Z,65.90
2023-05-12T04:11:48.720Z,65.90
2023-05-12T04:14:15.360Z,66.00
2023-05-12T04:16:42.266Z,66.10
2023-05-12T04:19:09.114Z,66.20
2023-05-12T04:21:36.145Z,66.10
2023-05-12T04:24:02.944Z,66.30
2023-05-12T04:26:29.956Z,66.90
2023-05-12T04:28:56.715Z,66.50
2023-05-12T04:31:23.523Z,66.60
2023-05-12T04:33:51.817Z,66.40
2023-05-12T04:36:18.607Z,66.60
2023-05-12T04:38:45.787Z,66.70
2023-05-12T04:41:12.473Z,66.80
2023-05-12T04:46:08.841Z,67.00
2023-05-12T04:48:35.930Z,67.10
2023-05-12T04:51:02.596Z,67.00
2023-05-12T04:53:29.364Z,67.10
2023-05-12T04:55:56.707Z,67.20
2023-05-12T04:58:23.512Z,67.30
2023-05-12T05:00:50.259Z,67.40
2023-05-12T05:03:17.114Z,67.20
2023-05-12T05:05:43.879Z,67.20
2023-05-12T05:08:10.645Z,67.00
2023-05-12T05:10:37.353Z,67.00
2023-05-12T05:13:04.002Z,66.80
2023-05-12T05:15:30.884Z,66.80
2023-05-12T05:17:58.496Z,66.80
2023-05-12T05:20:29.275Z,66.80
2023-05-12T05:22:56.178Z,66.60
2023-05-12T05:25:22.921Z,66.80
2023-05-12T05:27:49.989Z,66.90
2023-05-12T05:30:16.832Z,66.80
2023-05-12T05:32:43.636Z,66.60
2023-05-12T05:35:10.572Z,66.50
2023-05-12T05:37:37.704Z,66.40
2023-05-12T09:37:40.626Z,66.20
2023-05-12T09:40:08.393Z,65.80
2023-05-12T09:42:35.906Z,66.10
2023-05-12T09:45:09.316Z,65.50
2023-05-12T09:47:38.717Z,65.10
2023-05-12T09:50:07.813Z,65.40
2023-05-12T09:52:41.498Z,64.90
2023-05-12T09:55:10.160Z,63.20
2023-05-12T09:57:40.832Z,63.50
2023-05-12T10:00:21.155Z,63.50
2023-05-12T10:02:59.301Z,63.60
2023-05-12T10:05:27.028Z,64.30
2023-05-12T10:07:57.608Z,63.20
2023-05-12T10:10:26.764Z,63.20
2023-05-12T10:12:53.770Z,61.60
2023-05-12T10:15:22.844Z,62.60
2023-05-12T10:17:53.755Z,63.00
2023-05-12T10:20:21.363Z,62.90
2023-05-12T10:22:49.814Z,62.60
2023-05-12T10:25:16.768Z,62.40
2023-05-12T10:27:44.425Z,63.70
2023-05-12T10:30:12.336Z,62.50
2023-05-12T10:32:39.184Z,61.00
2023-05-12T10:35:10.400Z,62.00
2023-05-12T10:37:40.056Z,61.10
2023-05-12T10:40:07.878Z,59.40
2023-05-12T10:42:39.748Z,58.80
2023-05-12T10:45:18.439Z,59.50
2023-05-12T10:50:13.968Z,59.80
2023-05-12T10:52:54.537Z,61.40
2023-05-12T10:55:34.899Z,61.50
2023-05-12T10:58:11.712Z,60.70
2023-05-12T11:00:49.416Z,59.90
2023-05-12T11:03:23.953Z,59.00
2023-05-12T11:06:05.395Z,58.70
2023-05-12T11:08:35.715Z,58.20
2023-05-12T11:11:03.321Z,59.30
2023-05-12T11:13:30.515Z,59.70
2023-05-12T11:15:58.208Z,59.00
2023-05-12T11:18:26.107Z,59.10
2023-05-12T11:20:52.821Z,59.00
2023-05-12T11:23:29.563Z,60.00
2023-05-12T11:31:07.251Z,58.50
2023-05-12T11:33:33.938Z,57.80
2023-05-12T11:58:30.584Z,58.40
2023-05-12T12:01:08.285Z,57.10
2023-05-12T12:03:50.753Z,58.00
2023-05-12T12:06:21.213Z,58.80
2023-05-12T12:08:53.960Z,57.20
2023-05-12T12:11:21.917Z,57.10
2023-05-12T12:13:56.877Z,56.40
2023-05-12T12:16:30.247Z,56.70
2023-05-12T12:18:57.628Z,56.20
2023-05-12T12:21:25.180Z,58.00
2023-05-12T12:23:52.508Z,59.90
2023-05-12T12:26:21.046Z,60.00
2023-05-12T12:28:47.782Z,60.80
